sensor_id;sensor_type;location;lat;lon;timestamp;pressure;altitude;pressure_sealevel;temperature;humidity
40592;BME280;26301;42.832;23.918;2022-11-20T00:01:28;92521.72;;;12.73;92.04
40592;BME280;26301;42.832;23.918;2022-11-20T00:03:56;92530.47;;;12.93;91.46
40592;BME280;26301;42.832;23.918;2022-11-20T00:06:23;92541.88;;;12.81;91.87
40592;BME280;26301;42.832;23.918;2022-11-20T00:08:54;92532.59;;;12.70;92.32
40592;BME280;26301;42.832;23.918;2022-11-20T00:11:22;92511.34;;;12.73;91.21
40592;BME280;26301;42.832;23.918;2022-11-20T00:13:51;92549.13;;;12.95;91.04
40592;BME280;26301;42.832;23.918;2022-11-20T00:16:20;92540.34;;;12.91;91.08
40592;BME280;26301;42.832;23.918;2022-11-20T00:18:46;92508.47;;;12.85;91.15
40592;BME280;26301;42.832;23.918;2022-11-20T00:23:39;92528.63;;;12.98;90.84
40592;BME280;26301;42.832;23.918;2022-11-20T00:26:08;92528.31;;;13.25;88.25
40592;BME280;26301;42.832;23.918;2022-11-20T00:28:34;92506.28;;;13.13;87.75
40592;BME280;26301;42.832;23.918;2022-11-20T00:31:07;92437.44;;;12.81;87.27
40592;BME280;26301;42.832;23.918;2022-11-20T00:33:33;92478.00;;;13.21;87.64
40592;BME280;26301;42.832;23.918;2022-11-20T00:36:10;92496.09;;;13.37;86.61
40592;BME280;26301;42.832;23.918;2022-11-20T00:38:38;92496.63;;;13.34;85.88
40592;BME280;26301;42.832;23.918;2022-11-20T00:41:06;92492.00;;;13.31;87.19
40592;BME280;26301;42.832;23.918;2022-11-20T00:43:32;92509.75;;;13.58;86.04
40592;BME280;26301;42.832;23.918;2022-11-20T00:46:05;92506.28;;;13.72;84.79
40592;BME280;26301;42.832;23.918;2022-11-20T00:48:32;92513.31;;;13.72;85.60
40592;BME280;26301;42.832;23.918;2022-11-20T00:50:59;92499.28;;;13.68;84.62
40592;BME280;26301;42.832;23.918;2022-11-20T00:53:25;92478.38;;;13.54;84.92
40592;BME280;26301;42.832;23.918;2022-11-20T00:55:59;92487.19;;;13.53;84.55
40592;BME280;26301;42.832;23.918;2022-11-20T00:58:29;92482.75;;;13.54;85.36
40592;BME280;26301;42.832;23.918;2022-11-20T01:01:06;92514.31;;;13.76;84.48
40592;BME280;26301;42.832;23.918;2022-11-20T01:03:36;92504.69;;;13.77;83.50
40592;BME280;26301;42.832;23.918;2022-11-20T01:06:13;92472.38;;;13.54;83.93
40592;BME280;26301;42.832;23.918;2022-11-20T01:08:39;92485.78;;;13.71;82.29
40592;BME280;26301;42.832;23.918;2022-11-20T01:11:10;92521.72;;;13.93;82.86
40592;BME280;26301;42.832;23.918;2022-11-20T01:13:38;92482.16;;;13.72;81.92
40592;BME280;26301;42.832;23.918;2022-11-20T01:16:11;92531.03;;;13.99;82.16
40592;BME280;26301;42.832;23.918;2022-11-20T01:18:38;92501.00;;;13.88;82.51
40592;BME280;26301;42.832;23.918;2022-11-20T01:21:06;92504.44;;;13.78;82.66
40592;BME280;26301;42.832;23.918;2022-11-20T01:23:38;92534.66;;;13.98;81.67
40592;BME280;26301;42.832;23.918;2022-11-20T01:26:06;92499.06;;;14.04;81.72
40592;BME280;26301;42.832;23.918;2022-11-20T01:28:32;92503.69;;;14.07;80.87
40592;BME280;26301;42.832;23.918;2022-11-20T01:30:58;92497.50;;;14.03;80.68
40592;BME280;26301;42.832;23.918;2022-11-20T01:33:25;92496.41;;;14.14;80.93
40592;BME280;26301;42.832;23.918;2022-11-20T01:35:51;92496.44;;;14.09;80.96
40592;BME280;26301;42.832;23.918;2022-11-20T01:38:17;92482.81;;;13.88;82.00
40592;BME280;26301;42.832;23.918;2022-11-20T01:40:43;92498.78;;;14.05;81.49
40592;BME280;26301;42.832;23.918;2022-11-20T01:43:16;92473.22;;;13.88;80.57
40592;BME280;26301;42.832;23.918;2022-11-20T01:45:58;92462.03;;;13.93;80.73
40592;BME280;26301;42.832;23.918;2022-11-20T01:48:30;92490.25;;;14.00;81.23
40592;BME280;26301;42.832;23.918;2022-11-20T01:50:57;92470.47;;;14.09;80.63
40592;BME280;26301;42.832;23.918;2022-11-20T01:53:25;92466.59;;;14.06;79.56
40592;BME280;26301;42.832;23.918;2022-11-20T01:55:55;92460.34;;;14.07;79.91
40592;BME280;26301;42.832;23.918;2022-11-20T01:58:29;92438.16;;;13.91;80.26
40592;BME280;26301;42.832;23.918;2022-11-20T02:00:56;92438.69;;;13.88;79.55
40592;BME280;26301;42.832;23.918;2022-11-20T02:03:22;92417.69;;;13.84;80.10
40592;BME280;26301;42.832;23.918;2022-11-20T02:08:39;92435.22;;;13.98;79.99
40592;BME280;26301;42.832;23.918;2022-11-20T02:11:05;92452.91;;;13.95;80.82
40592;BME280;26301;42.832;23.918;2022-11-20T02:13:31;92411.53;;;13.75;80.03
40592;BME280;26301;42.832;23.918;2022-11-20T02:16:15;92458.28;;;14.04;80.12
40592;BME280;26301;42.832;23.918;2022-11-20T02:18:43;92444.16;;;13.86;80.76
40592;BME280;26301;42.832;23.918;2022-11-20T02:21:18;92448.88;;;13.79;81.31
40592;BME280;26301;42.832;23.918;2022-11-20T02:24:02;92452.69;;;13.87;80.79
40592;BME280;26301;42.832;23.918;2022-11-20T02:26:30;92455.22;;;13.97;80.64
40592;BME280;26301;42.832;23.918;2022-11-20T02:28:56;92440.19;;;13.94;80.32
40592;BME280;26301;42.832;23.918;2022-11-20T02:31:23;92422.69;;;13.76;81.14
40592;BME280;26301;42.832;23.918;2022-11-20T02:33:57;92403.44;;;13.82;80.01
40592;BME280;26301;42.832;23.918;2022-11-20T02:36:24;92444.31;;;14.00;79.22
40592;BME280;26301;42.832;23.918;2022-11-20T02:38:51;92430.72;;;13.79;79.31
40592;BME280;26301;42.832;23.918;2022-11-20T02:41:17;92428.88;;;13.80;79.02
40592;BME280;26301;42.832;23.918;2022-11-20T02:43:43;92434.03;;;13.85;79.33
40592;BME280;26301;42.832;23.918;2022-11-20T02:46:08;92366.88;;;13.44;79.35
40592;BME280;26301;42.832;23.918;2022-11-20T02:48:34;92459.16;;;13.94;79.97
40592;BME280;26301;42.832;23.918;2022-11-20T02:51:00;92432.38;;;13.65;80.14
40592;BME280;26301;42.832;23.918;2022-11-20T02:53:26;92459.97;;;13.90;79.86
40592;BME280;26301;42.832;23.918;2022-11-20T02:55:52;92445.00;;;13.77;80.21
40592;BME280;26301;42.832;23.918;2022-11-20T02:58:17;92465.97;;;13.85;80.21
40592;BME280;26301;42.832;23.918;2022-11-20T03:00:43;92475.84;;;13.83;80.16
40592;BME280;26301;42.832;23.918;2022-11-20T03:03:09;92469.97;;;13.67;80.46
40592;BME280;26301;42.832;23.918;2022-11-20T03:05:34;92488.59;;;13.75;81.74
40592;BME280;26301;42.832;23.918;2022-11-20T03:08:00;92473.03;;;13.75;80.08
40592;BME280;26301;42.832;23.918;2022-11-20T03:10:27;92501.78;;;13.83;80.09
40592;BME280;26301;42.832;23.918;2022-11-20T03:12:56;92489.09;;;13.82;79.13
40592;BME280;26301;42.832;23.918;2022-11-20T03:15:24;92519.16;;;13.88;79.15
40592;BME280;26301;42.832;23.918;2022-11-20T03:17:53;92500.44;;;13.91;78.58
40592;BME280;26301;42.832;23.918;2022-11-20T03:20:20;92519.91;;;13.93;78.70
40592;BME280;26301;42.832;23.918;2022-11-20T03:22:46;92502.00;;;13.92;78.22
40592;BME280;26301;42.832;23.918;2022-11-20T03:25:12;92505.88;;;13.94;77.66
40592;BME280;26301;42.832;23.918;2022-11-20T03:27:37;92527.34;;;14.05;78.60
40592;BME280;26301;42.832;23.918;2022-11-20T03:30:03;92533.88;;;14.03;79.93
40592;BME280;26301;42.832;23.918;2022-11-20T03:32:30;92535.59;;;14.12;78.66
40592;BME280;26301;42.832;23.918;2022-11-20T03:34:55;92533.97;;;14.22;77.26
40592;BME280;26301;42.832;23.918;2022-11-20T03:37:21;92543.09;;;14.19;78.06
40592;BME280;26301;42.832;23.918;2022-11-20T03:39:46;92540.91;;;14.31;75.58
40592;BME280;26301;42.832;23.918;2022-11-20T03:42:12;92546.41;;;14.25;77.42
40592;BME280;26301;42.832;23.918;2022-11-20T03:44:58;92545.66;;;14.24;77.19
40592;BME280;26301;42.832;23.918;2022-11-20T03:47:24;92543.31;;;14.23;78.02
40592;BME280;26301;42.832;23.918;2022-11-20T03:49:50;92551.69;;;14.14;78.82
40592;BME280;26301;42.832;23.918;2022-11-20T03:52:15;92545.75;;;14.09;79.45
40592;BME280;26301;42.832;23.918;2022-11-20T03:54:41;92457.28;;;13.66;78.94
40592;BME280;26301;42.832;23.918;2022-11-20T03:57:07;92537.75;;;14.05;79.17
40592;BME280;26301;42.832;23.918;2022-11-20T03:59:32;92538.84;;;13.44;80.79
40592;BME280;26301;42.832;23.918;2022-11-20T04:01:58;92544.38;;;13.17;82.28
40592;BME280;26301;42.832;23.918;2022-11-20T04:04:24;92544.13;;;13.14;82.83
40592;BME280;26301;42.832;23.918;2022-11-20T04:06:49;92502.47;;;13.00;83.12
40592;BME280;26301;42.832;23.918;2022-11-20T04:09:15;92520.03;;;13.13;83.09
40592;BME280;26301;42.832;23.918;2022-11-20T04:11:41;92534.09;;;12.97;84.08
40592;BME280;26301;42.832;23.918;2022-11-20T04:14:13;92509.81;;;12.62;85.16
40592;BME280;26301;42.832;23.918;2022-11-20T04:16:39;92529.50;;;12.58;85.98
40592;BME280;26301;42.832;23.918;2022-11-20T04:19:08;92503.13;;;12.30;86.92
40592;BME280;26301;42.832;23.918;2022-11-20T04:21:34;92500.28;;;12.22;87.54
40592;BME280;26301;42.832;23.918;2022-11-20T04:24:01;92479.84;;;12.10;88.26
40592;BME280;26301;42.832;23.918;2022-11-20T04:26:28;92477.75;;;12.17;88.01
40592;BME280;26301;42.832;23.918;2022-11-20T04:28:54;92501.56;;;12.34;88.21
40592;BME280;26301;42.832;23.918;2022-11-20T04:31:23;92484.22;;;12.25;88.77
40592;BME280;26301;42.832;23.918;2022-11-20T04:33:49;92491.22;;;12.19;88.63
40592;BME280;26301;42.832;23.918;2022-11-20T04:36:20;92528.75;;;12.01;90.74
40592;BME280;26301;42.832;23.918;2022-11-20T04:38:46;92485.22;;;11.78;91.46
40592;BME280;26301;42.832;23.918;2022-11-20T04:41:18;92518.63;;;11.84;92.49
40592;BME280;26301;42.832;23.918;2022-11-20T04:43:51;92509.53;;;11.72;92.71
40592;BME280;26301;42.832;23.918;2022-11-20T04:46:19;92513.69;;;11.67;92.74
40592;BME280;26301;42.832;23.918;2022-11-20T04:48:45;92548.09;;;11.78;92.90
40592;BME280;26301;42.832;23.918;2022-11-20T04:51:11;92503.06;;;11.54;93.35
40592;BME280;26301;42.832;23.918;2022-11-20T04:53:37;92470.41;;;11.17;94.06
40592;BME280;26301;42.832;23.918;2022-11-20T04:56:06;92529.16;;;11.57;94.03
40592;BME280;26301;42.832;23.918;2022-11-20T04:58:32;92542.88;;;11.53;95.38
40592;BME280;26301;42.832;23.918;2022-11-20T05:01:14;92535.09;;;11.48;95.00
40592;BME280;26301;42.832;23.918;2022-11-20T05:03:41;92524.25;;;11.61;94.03
40592;BME280;26301;42.832;23.918;2022-11-20T05:06:10;92520.41;;;11.58;94.90
40592;BME280;26301;42.832;23.918;2022-11-20T05:08:35;92511.56;;;11.49;95.24
40592;BME280;26301;42.832;23.918;2022-11-20T05:11:07;92490.88;;;11.39;95.24
40592;BME280;26301;42.832;23.918;2022-11-20T05:13:33;92501.19;;;11.34;96.60
40592;BME280;26301;42.832;23.918;2022-11-20T05:16:10;92503.25;;;11.27;96.81
40592;BME280;26301;42.832;23.918;2022-11-20T05:18:36;92506.66;;;11.58;97.33
40592;BME280;26301;42.832;23.918;2022-11-20T05:21:02;92526.59;;;11.57;97.73
40592;BME280;26301;42.832;23.918;2022-11-20T05:23:29;92509.75;;;11.55;96.32
40592;BME280;26301;42.832;23.918;2022-11-20T05:25:57;92489.31;;;11.38;96.65
40592;BME280;26301;42.832;23.918;2022-11-20T05:28:23;92502.50;;;11.31;98.51
40592;BME280;26301;42.832;23.918;2022-11-20T05:30:49;92521.91;;;11.44;98.18
40592;BME280;26301;42.832;23.918;2022-11-20T05:33:16;92521.34;;;11.37;99.23
40592;BME280;26301;42.832;23.918;2022-11-20T05:35:41;92510.50;;;11.35;99.60
40592;BME280;26301;42.832;23.918;2022-11-20T05:38:07;92536.13;;;11.52;96.76
40592;BME280;26301;42.832;23.918;2022-11-20T05:40:33;92515.00;;;11.80;87.60
40592;BME280;26301;42.832;23.918;2022-11-20T05:43:00;92539.13;;;12.01;93.03
40592;BME280;26301;42.832;23.918;2022-11-20T05:45:25;92552.84;;;12.07;89.57
40592;BME280;26301;42.832;23.918;2022-11-20T05:47:51;92558.53;;;12.14;94.22
40592;BME280;26301;42.832;23.918;2022-11-20T05:50:16;92530.56;;;12.11;91.09
40592;BME280;26301;42.832;23.918;2022-11-20T05:52:42;92532.91;;;12.28;94.78
40592;BME280;26301;42.832;23.918;2022-11-20T05:55:09;92556.97;;;12.44;90.82
40592;BME280;26301;42.832;23.918;2022-11-20T05:57:35;92522.22;;;12.75;93.11
40592;BME280;26301;42.832;23.918;2022-11-20T06:00:01;92487.50;;;12.76;90.32
40592;BME280;26301;42.832;23.918;2022-11-20T06:02:26;92519.59;;;12.80;100.00
40592;BME280;26301;42.832;23.918;2022-11-20T06:04:52;92535.16;;;12.86;96.16
40592;BME280;26301;42.832;23.918;2022-11-20T06:07:17;92551.72;;;12.90;100.00
40592;BME280;26301;42.832;23.918;2022-11-20T06:09:43;92527.13;;;12.72;100.00
40592;BME280;26301;42.832;23.918;2022-11-20T06:12:08;92550.16;;;12.99;100.00
40592;BME280;26301;42.832;23.918;2022-11-20T06:14:34;92550.97;;;12.69;87.46
40592;BME280;26301;42.832;23.918;2022-11-20T06:17:00;92559.81;;;12.73;85.67
40592;BME280;26301;42.832;23.918;2022-11-20T06:19:25;92574.06;;;12.70;86.72
40592;BME280;26301;42.832;23.918;2022-11-20T06:21:51;92568.66;;;12.31;85.08
40592;BME280;26301;42.832;23.918;2022-11-20T06:24:17;92581.81;;;12.04;86.46
40592;BME280;26301;42.832;23.918;2022-11-20T06:26:43;92594.47;;;11.90;85.01
40592;BME280;26301;42.832;23.918;2022-11-20T06:29:09;92606.13;;;11.93;84.82
40592;BME280;26301;42.832;23.918;2022-11-20T06:31:34;92608.38;;;11.74;85.96
40592;BME280;26301;42.832;23.918;2022-11-20T06:34:05;92601.88;;;11.56;87.19
40592;BME280;26301;42.832;23.918;2022-11-20T06:36:31;92592.78;;;11.53;86.32
40592;BME280;26301;42.832;23.918;2022-11-20T06:38:58;92616.59;;;11.55;88.38
40592;BME280;26301;42.832;23.918;2022-11-20T06:41:24;92622.81;;;11.59;86.72
40592;BME280;26301;42.832;23.918;2022-11-20T06:43:50;92619.91;;;11.40;88.06
40592;BME280;26301;42.832;23.918;2022-11-20T06:46:18;92631.97;;;11.25;89.32
40592;BME280;26301;42.832;23.918;2022-11-20T06:48:44;92632.66;;;11.05;91.04
40592;BME280;26301;42.832;23.918;2022-11-20T06:51:10;92608.00;;;10.87;91.34
40592;BME280;26301;42.832;23.918;2022-11-20T06:53:36;92622.72;;;10.86;92.16
40592;BME280;26301;42.832;23.918;2022-11-20T06:56:02;92615.16;;;10.80;90.50
40592;BME280;26301;42.832;23.918;2022-11-20T06:58:30;92658.28;;;10.74;92.05
40592;BME280;26301;42.832;23.918;2022-11-20T07:01:00;92656.47;;;10.42;91.86
40592;BME280;26301;42.832;23.918;2022-11-20T07:03:27;92652.81;;;10.11;93.76
40592;BME280;26301;42.832;23.918;2022-11-20T07:05:57;92662.69;;;10.19;94.10
40592;BME280;26301;42.832;23.918;2022-11-20T07:08:24;92658.16;;;10.04;95.32
40592;BME280;26301;42.832;23.918;2022-11-20T07:10:50;92692.16;;;10.01;97.11
40592;BME280;26301;42.832;23.918;2022-11-20T07:13:16;92690.88;;;9.99;96.77
40592;BME280;26301;42.832;23.918;2022-11-20T07:15:42;92654.53;;;9.78;95.26
40592;BME280;26301;42.832;23.918;2022-11-20T07:18:07;92706.88;;;10.01;96.95
40592;BME280;26301;42.832;23.918;2022-11-20T07:20:33;92685.53;;;9.83;96.25
40592;BME280;26301;42.832;23.918;2022-11-20T07:22:59;92707.91;;;10.00;97.41
40592;BME280;26301;42.832;23.918;2022-11-20T07:25:26;92714.31;;;9.97;98.19
40592;BME280;26301;42.832;23.918;2022-11-20T07:27:53;92715.78;;;9.88;98.79
40592;BME280;26301;42.832;23.918;2022-11-20T07:30:18;92684.38;;;9.74;97.88
40592;BME280;26301;42.832;23.918;2022-11-20T07:32:50;92713.31;;;9.76;98.69
40592;BME280;26301;42.832;23.918;2022-11-20T07:35:19;92674.44;;;9.61;100.00
40592;BME280;26301;42.832;23.918;2022-11-20T07:37:45;92713.91;;;9.83;98.61
40592;BME280;26301;42.832;23.918;2022-11-20T07:40:12;92716.47;;;9.83;98.96
40592;BME280;26301;42.832;23.918;2022-11-20T07:42:38;92713.91;;;9.83;98.80
40592;BME280;26301;42.832;23.918;2022-11-20T07:45:04;92730.94;;;9.84;98.83
40592;BME280;26301;42.832;23.918;2022-11-20T07:47:35;92728.59;;;9.83;98.24
40592;BME280;26301;42.832;23.918;2022-11-20T07:50:01;92715.00;;;9.88;97.38
40592;BME280;26301;42.832;23.918;2022-11-20T07:52:26;92720.44;;;9.91;97.32
40592;BME280;26301;42.832;23.918;2022-11-20T07:55:09;92720.03;;;9.77;99.17
40592;BME280;26301;42.832;23.918;2022-11-20T07:57:43;92722.91;;;9.81;99.55
40592;BME280;26301;42.832;23.918;2022-11-20T08:00:10;92700.31;;;9.66;99.36
40592;BME280;26301;42.832;23.918;2022-11-20T08:02:38;92723.72;;;9.87;98.33
40592;BME280;26301;42.832;23.918;2022-11-20T08:05:04;92714.69;;;9.84;97.69
40592;BME280;26301;42.832;23.918;2022-11-20T08:07:36;92728.00;;;9.76;97.66
40592;BME280;26301;42.832;23.918;2022-11-20T08:10:02;92710.47;;;9.56;99.23
40592;BME280;26301;42.832;23.918;2022-11-20T08:12:28;92726.38;;;9.70;100.00
40592;BME280;26301;42.832;23.918;2022-11-20T08:15:26;92710.00;;;9.59;100.00
40592;BME280;26301;42.832;23.918;2022-11-20T08:17:51;92720.19;;;9.71;100.00
40592;BME280;26301;42.832;23.918;2022-11-20T08:20:18;92699.47;;;9.60;100.00
40592;BME280;26301;42.832;23.918;2022-11-20T08:22:44;92709.94;;;9.76;100.00
40592;BME280;26301;42.832;23.918;2022-11-20T08:25:09;92713.47;;;9.92;100.00
40592;BME280;26301;42.832;23.918;2022-11-20T08:27:35;92689.69;;;9.84;100.00
40592;BME280;26301;42.832;23.918;2022-11-20T08:30:01;92709.41;;;9.96;100.00
40592;BME280;26301;42.832;23.918;2022-11-20T08:32:27;92721.78;;;9.94;100.00
40592;BME280;26301;42.832;23.918;2022-11-20T08:34:52;92709.72;;;9.99;100.00
40592;BME280;26301;42.832;23.918;2022-11-20T08:37:18;92685.88;;;9.92;100.00
40592;BME280;26301;42.832;23.918;2022-11-20T08:39:43;92686.53;;;10.04;100.00
40592;BME280;26301;42.832;23.918;2022-11-20T08:42:09;92708.66;;;10.22;100.00
40592;BME280;26301;42.832;23.918;2022-11-20T08:44:35;92697.16;;;10.30;100.00
40592;BME280;26301;42.832;23.918;2022-11-20T08:47:01;92668.59;;;10.15;100.00
40592;BME280;26301;42.832;23.918;2022-11-20T08:49:27;92688.97;;;10.38;100.00
40592;BME280;26301;42.832;23.918;2022-11-20T08:51:52;92680.81;;;10.24;100.00
40592;BME280;26301;42.832;23.918;2022-11-20T08:54:20;92698.31;;;10.22;100.00
40592;BME280;26301;42.832;23.918;2022-11-20T08:56:47;92695.22;;;10.20;100.00
40592;BME280;26301;42.832;23.918;2022-11-20T08:59:13;92690.56;;;10.17;100.00
40592;BME280;26301;42.832;23.918;2022-11-20T09:01:39;92686.53;;;10.04;100.00
40592;BME280;26301;42.832;23.918;2022-11-20T09:04:05;92670.25;;;9.99;100.00
40592;BME280;26301;42.832;23.918;2022-11-20T09:06:31;92693.31;;;10.11;100.00
40592;BME280;26301;42.832;23.918;2022-11-20T09:08:56;92688.94;;;10.11;100.00
40592;BME280;26301;42.832;23.918;2022-11-20T09:11:22;92682.19;;;10.10;100.00
40592;BME280;26301;42.832;23.918;2022-11-20T09:13:48;92677.28;;;10.08;100.00
40592;BME280;26301;42.832;23.918;2022-11-20T09:16:14;92682.84;;;10.22;100.00
40592;BME280;26301;42.832;23.918;2022-11-20T09:18:39;92650.47;;;10.10;100.00
40592;BME280;26301;42.832;23.918;2022-11-20T09:21:09;92663.88;;;10.34;100.00
40592;BME280;26301;42.832;23.918;2022-11-20T09:23:37;92582.91;;;9.85;100.00
40592;BME280;26301;42.832;23.918;2022-11-20T09:26:09;92636.91;;;10.24;100.00
40592;BME280;26301;42.832;23.918;2022-11-20T09:28:35;92656.53;;;10.47;100.00
40592;BME280;26301;42.832;23.918;2022-11-20T09:31:05;92618.94;;;10.29;100.00
40592;BME280;26301;42.832;23.918;2022-11-20T09:33:31;92610.06;;;10.25;100.00
40592;BME280;26301;42.832;23.918;2022-11-20T09:35:57;92653.63;;;10.76;100.00
40592;BME280;26301;42.832;23.918;2022-11-20T09:38:23;92661.72;;;10.85;100.00
40592;BME280;26301;42.832;23.918;2022-11-20T09:41:24;92667.38;;;10.82;100.00
40592;BME280;26301;42.832;23.918;2022-11-20T09:44:02;92659.56;;;10.76;100.00
40592;BME280;26301;42.832;23.918;2022-11-20T09:46:44;92646.34;;;10.68;100.00
40592;BME280;26301;42.832;23.918;2022-11-20T09:49:28;92664.56;;;10.88;99.45
40592;BME280;26301;42.832;23.918;2022-11-20T09:52:00;92651.59;;;10.78;100.00
40592;BME280;26301;42.832;23.918;2022-11-20T09:54:32;92632.91;;;10.66;100.00
40592;BME280;26301;42.832;23.918;2022-11-20T09:57:01;92633.34;;;10.58;100.00
40592;BME280;26301;42.832;23.918;2022-11-20T09:59:44;92650.53;;;10.42;100.00
40592;BME280;26301;42.832;23.918;2022-11-20T10:08:19;92666.72;;;10.64;100.00
40592;BME280;26301;42.832;23.918;2022-11-20T10:19:05;92664.25;;;10.80;100.00
40592;BME280;26301;42.832;23.918;2022-11-20T10:30:15;92674.91;;;10.88;100.00
40592;BME280;26301;42.832;23.918;2022-11-20T10:32:52;92668.41;;;10.86;100.00
40592;BME280;26301;42.832;23.918;2022-11-20T10:35:24;92674.41;;;10.91;100.00
40592;BME280;26301;42.832;23.918;2022-11-20T10:37:59;92675.88;;;10.77;100.00
40592;BME280;26301;42.832;23.918;2022-11-20T10:43:03;92666.94;;;10.58;100.00
40592;BME280;26301;42.832;23.918;2022-11-20T10:45:53;92656.84;;;10.56;100.00
40592;BME280;26301;42.832;23.918;2022-11-20T10:48:24;92675.44;;;10.53;100.00
40592;BME280;26301;42.832;23.918;2022-11-20T10:51:21;92680.28;;;10.49;100.00
40592;BME280;26301;42.832;23.918;2022-11-20T10:57:00;92663.94;;;10.39;100.00
40592;BME280;26301;42.832;23.918;2022-11-20T11:02:22;92643.06;;;10.45;100.00
40592;BME280;26301;42.832;23.918;2022-11-20T11:04:52;92649.19;;;10.66;100.00
40592;BME280;26301;42.832;23.918;2022-11-20T11:07:35;92647.66;;;10.70;100.00
40592;BME280;26301;42.832;23.918;2022-11-20T11:10:01;92638.72;;;10.83;100.00
40592;BME280;26301;42.832;23.918;2022-11-20T11:12:28;92615.38;;;10.73;100.00
40592;BME280;26301;42.832;23.918;2022-11-20T11:14:57;92633.56;;;10.88;100.00
40592;BME280;26301;42.832;23.918;2022-11-20T11:17:27;92645.50;;;10.94;100.00
40592;BME280;26301;42.832;23.918;2022-11-20T11:22:24;92635.16;;;10.94;100.00
40592;BME280;26301;42.832;23.918;2022-11-20T11:24:52;92645.84;;;11.08;100.00
40592;BME280;26301;42.832;23.918;2022-11-20T11:27:19;92649.47;;;11.07;100.00
40592;BME280;26301;42.832;23.918;2022-11-20T11:29:45;92625.59;;;10.95;100.00
40592;BME280;26301;42.832;23.918;2022-11-20T11:32:14;92635.94;;;10.95;100.00
40592;BME280;26301;42.832;23.918;2022-11-20T11:34:40;92634.88;;;10.91;100.00
40592;BME280;26301;42.832;23.918;2022-11-20T11:37:19;92643.09;;;10.83;100.00
40592;BME280;26301;42.832;23.918;2022-11-20T11:39:47;92637.41;;;10.81;100.00
40592;BME280;26301;42.832;23.918;2022-11-20T11:42:17;92627.31;;;10.79;100.00
40592;BME280;26301;42.832;23.918;2022-11-20T11:44:46;92602.16;;;10.64;100.00
40592;BME280;26301;42.832;23.918;2022-11-20T11:47:45;92621.31;;;10.73;100.00
40592;BME280;26301;42.832;23.918;2022-11-20T11:55:15;92601.28;;;10.48;100.00
40592;BME280;26301;42.832;23.918;2022-11-20T11:57:54;92615.53;;;10.56;100.00
40592;BME280;26301;42.832;23.918;2022-11-20T12:00:22;92604.28;;;10.40;100.00
40592;BME280;26301;42.832;23.918;2022-11-20T12:03:04;92636.38;;;10.49;100.00
40592;BME280;26301;42.832;23.918;2022-11-20T12:08:23;92663.94;;;10.39;100.00
40592;BME280;26301;42.832;23.918;2022-11-20T12:15:47;92653.44;;;10.50;100.00
40592;BME280;26301;42.832;23.918;2022-11-20T12:18:20;92678.03;;;10.58;100.00
40592;BME280;26301;42.832;23.918;2022-11-20T12:26:03;92654.66;;;10.75;100.00
40592;BME280;26301;42.832;23.918;2022-11-20T12:28:55;92657.31;;;10.85;100.00
40592;BME280;26301;42.832;23.918;2022-11-20T12:34:44;92588.81;;;10.40;100.00
40592;BME280;26301;42.832;23.918;2022-11-20T12:37:29;92615.34;;;10.68;100.00
40592;BME280;26301;42.832;23.918;2022-11-20T12:40:39;92642.59;;;10.86;100.00
40592;BME280;26301;42.832;23.918;2022-11-20T12:43:23;92661.25;;;10.93;100.00
40592;BME280;26301;42.832;23.918;2022-11-20T12:46:30;92648.56;;;10.86;100.00
40592;BME280;26301;42.832;23.918;2022-11-20T12:57:27;92621.72;;;10.92;100.00
40592;BME280;26301;42.832;23.918;2022-11-20T13:00:07;92642.44;;;11.03;100.00
40592;BME280;26301;42.832;23.918;2022-11-20T13:08:34;92658.19;;;10.96;100.00
40592;BME280;26301;42.832;23.918;2022-11-20T13:11:16;92652.47;;;10.94;100.00
40592;BME280;26301;42.832;23.918;2022-11-20T13:14:11;92642.03;;;10.79;100.00
40592;BME280;26301;42.832;23.918;2022-11-20T13:19:13;92665.00;;;10.75;100.00
40592;BME280;26301;42.832;23.918;2022-11-20T13:21:45;92625.66;;;10.68;100.00
40592;BME280;26301;42.832;23.918;2022-11-20T13:24:22;92620.81;;;10.76;100.00
40592;BME280;26301;42.832;23.918;2022-11-20T13:29:37;92584.75;;;10.49;100.00
40592;BME280;26301;42.832;23.918;2022-11-20T13:32:24;92575.94;;;10.45;100.00
40592;BME280;26301;42.832;23.918;2022-11-20T13:34:59;92581.75;;;10.63;100.00
40592;BME280;26301;42.832;23.918;2022-11-20T13:37:35;92536.44;;;10.45;100.00
40592;BME280;26301;42.832;23.918;2022-11-20T13:42:54;92570.25;;;10.81;100.00
40592;BME280;26301;42.832;23.918;2022-11-20T13:45:29;92553.84;;;10.65;100.00
40592;BME280;26301;42.832;23.918;2022-11-20T13:48:01;92574.00;;;10.68;100.00
40592;BME280;26301;42.832;23.918;2022-11-20T13:51:22;92583.06;;;10.70;100.00
40592;BME280;26301;42.832;23.918;2022-11-20T13:54:19;92593.22;;;10.77;100.00
40592;BME280;26301;42.832;23.918;2022-11-20T13:57:08;92574.81;;;10.68;100.00
40592;BME280;26301;42.832;23.918;2022-11-20T14:02:26;92562.41;;;10.70;100.00
40592;BME280;26301;42.832;23.918;2022-11-20T14:04:55;92561.13;;;10.73;100.00
40592;BME280;26301;42.832;23.918;2022-11-20T14:07:26;92575.94;;;10.88;100.00
40592;BME280;26301;42.832;23.918;2022-11-20T14:09:56;92585.47;;;10.82;100.00
40592;BME280;26301;42.832;23.918;2022-11-20T14:12:30;92568.16;;;10.78;100.00
40592;BME280;26301;42.832;23.918;2022-11-20T14:14:57;92560.59;;;10.71;100.00
40592;BME280;26301;42.832;23.918;2022-11-20T14:17:30;92543.53;;;10.65;100.00
40592;BME280;26301;42.832;23.918;2022-11-20T14:20:17;92572.31;;;10.84;100.00
40592;BME280;26301;42.832;23.918;2022-11-20T14:22:52;92575.69;;;10.84;100.00
40592;BME280;26301;42.832;23.918;2022-11-20T14:25:25;92566.88;;;10.80;100.00
40592;BME280;26301;42.832;23.918;2022-11-20T14:28:04;92529.50;;;10.50;100.00